Time;durP1;ratioP1;P1;durP2;ratioP2;P2;SDS_P1;SDS_P2;PMS_P1;PMS_P2;Temp;Humidity;BMP_temperature;BMP_pressure;BME280_temperature;BME280_humidity;BME280_pressure;Samples;Min_cycle;Max_cycle;Signal;HPM_P1;HPM_P2
2023/06/14 00:02:03;;;;;;;2.78;1.00;;;17.10;93.10;;;;;;7404030;19;19983;-82
2023/06/14 00:04:32;;;;;;;2.90;1.20;;;17.10;93.20;;;;;;7406019;19;19923;-82
2023/06/14 00:07:01;;;;;;;5.38;1.10;;;17.10;93.30;;;;;;7402318;19;19927;-81
2023/06/14 00:09:51;;;;;;;1.77;1.00;;;16.90;93.30;;;;;;7404095;19;20354;-82
2023/06/14 00:12:24;;;;;;;1.60;1.00;;;16.90;93.50;;;;;;7403860;19;19947;-82
2023/06/14 00:14:53;;;;;;;2.88;1.08;;;16.90;93.70;;;;;;7403897;19;19922;-82
2023/06/14 00:17:22;;;;;;;1.83;1.13;;;16.70;93.70;;;;;;7403399;19;20344;-82
2023/06/14 00:19:52;;;;;;;3.63;1.63;;;16.60;93.80;;;;;;7406227;19;19937;-82
2023/06/14 00:22:21;;;;;;;3.15;1.23;;;16.70;94.00;;;;;;7405630;19;19922;-81
2023/06/14 00:24:50;;;;;;;3.67;1.20;;;16.70;94.10;;;;;;7407220;19;19956;-82
2023/06/14 00:27:22;;;;;;;3.95;1.17;;;16.70;94.40;;;;;;7406192;19;19922;-82
2023/06/14 00:29:51;;;;;;;3.08;1.30;;;16.70;94.40;;;;;;7403858;19;20324;-82
2023/06/14 00:32:25;;;;;;;2.80;1.15;;;16.50;94.40;;;;;;7406403;19;19947;-82
2023/06/14 00:34:54;;;;;;;2.58;0.98;;;16.50;94.60;;;;;;7405119;19;20328;-82
2023/06/14 00:37:24;;;;;;;2.85;1.25;;;16.40;94.70;;;;;;7404991;19;19929;-81
2023/06/14 00:39:53;;;;;;;3.65;1.30;;;16.40;94.80;;;;;;7405283;19;20399;-82
2023/06/14 00:42:31;;;;;;;4.60;1.55;;;16.40;94.90;;;;;;7405197;19;19922;-82
2023/06/14 00:45:01;;;;;;;2.50;1.10;;;16.50;95.20;;;;;;7405958;19;19922;-82
2023/06/14 00:47:30;;;;;;;5.63;1.73;;;16.50;95.00;;;;;;7405725;19;20376;-82
2023/06/14 00:50:04;;;;;;;3.00;1.48;;;16.40;95.10;;;;;;7406887;19;19994;-81
2023/06/14 00:52:34;;;;;;;2.78;1.48;;;16.40;95.30;;;;;;7404230;19;19993;-82
2023/06/14 00:55:11;;;;;;;2.22;1.10;;;16.20;95.30;;;;;;7404518;19;19923;-81
2023/06/14 00:57:43;;;;;;;1.88;1.10;;;16.20;95.30;;;;;;7404785;19;19923;-83
2023/06/14 01:00:14;;;;;;;2.55;1.27;;;16.40;95.60;;;;;;7403333;19;20268;-82
2023/06/14 01:02:43;;;;;;;3.78;1.45;;;16.20;95.40;;;;;;7404235;19;19948;-82
2023/06/14 01:05:13;;;;;;;2.75;1.20;;;16.10;95.60;;;;;;7404949;19;20297;-82
2023/06/14 01:07:52;;;;;;;3.95;1.20;;;16.20;95.90;;;;;;7405433;19;19922;-81
2023/06/14 01:10:39;;;;;;;2.80;1.08;;;16.20;96.10;;;;;;7403130;19;19946;-82
2023/06/14 01:13:17;;;;;;;4.15;1.63;;;16.10;96.50;;;;;;7405736;19;19956;-81
2023/06/14 01:15:47;;;;;;;1.83;1.02;;;16.00;96.40;;;;;;7406515;19;19925;-82
2023/06/14 01:18:19;;;;;;;3.45;0.98;;;16.00;96.40;;;;;;7402628;19;19997;-82
2023/06/14 01:20:54;;;;;;;1.52;1.00;;;16.10;96.50;;;;;;7401913;19;19929;-82
2023/06/14 01:23:32;;;;;;;10.85;1.40;;;15.90;96.70;;;;;;7403282;19;19930;-82
2023/06/14 01:26:03;;;;;;;2.45;1.10;;;15.80;96.80;;;;;;7400673;19;19926;-83
2023/06/14 01:28:34;;;;;;;2.83;1.13;;;15.50;96.80;;;;;;7403299;19;19922;-82
2023/06/14 01:31:12;;;;;;;2.63;1.00;;;15.80;97.00;;;;;;7403150;19;19974;-82
2023/06/14 01:33:41;;;;;;;1.52;1.10;;;15.80;97.10;;;;;;7403976;19;19939;-81
2023/06/14 01:36:15;;;;;;;2.03;1.20;;;15.70;97.20;;;;;;7402093;19;19946;-82
2023/06/14 01:38:48;;;;;;;2.08;1.10;;;15.80;97.30;;;;;;7403143;19;19929;-82
2023/06/14 01:41:18;;;;;;;4.28;1.40;;;15.90;97.80;;;;;;7401947;19;19926;-82
2023/06/14 01:43:48;;;;;;;2.03;1.30;;;15.70;97.60;;;;;;7403089;19;19926;-81
2023/06/14 01:46:18;;;;;;;4.05;1.15;;;15.60;97.60;;;;;;7401086;19;19937;-82
2023/06/14 01:48:55;;;;;;;2.15;1.10;;;15.50;97.70;;;;;;7402041;19;19927;-82
2023/06/14 01:51:24;;;;;;;1.48;0.90;;;15.60;97.70;;;;;;7402547;19;19947;-82
2023/06/14 01:53:57;;;;;;;2.85;1.20;;;15.50;97.80;;;;;;7400832;19;19933;-82
2023/06/14 01:56:26;;;;;;;3.63;0.98;;;15.40;98.00;;;;;;7400873;19;19922;-82
2023/06/14 01:58:55;;;;;;;4.57;1.20;;;15.50;98.10;;;;;;7399851;19;19942;-82
2023/06/14 02:01:25;;;;;;;3.53;1.13;;;15.40;98.10;;;;;;7401989;19;20282;-82
2023/06/14 02:03:54;;;;;;;2.67;1.52;;;15.30;98.40;;;;;;7402444;19;19993;-75
2023/06/14 02:06:23;;;;;;;2.35;1.20;;;15.50;98.40;;;;;;7400429;19;19922;-75
2023/06/14 02:08:52;;;;;;;2.85;1.50;;;15.30;98.40;;;;;;7403130;19;19915;-75
2023/06/14 02:11:25;;;;;;;1.85;1.40;;;15.30;98.40;;;;;;7403858;19;19925;-75
2023/06/14 02:13:54;;;;;;;5.47;2.05;;;15.50;98.60;;;;;;7403110;19;19926;-75
2023/06/14 02:16:24;;;;;;;1.90;1.10;;;15.50;98.40;;;;;;7403170;19;19951;-75
2023/06/14 02:18:54;;;;;;;2.28;1.30;;;15.50;98.60;;;;;;7400056;19;20282;-75
2023/06/14 02:21:23;;;;;;;3.60;1.23;;;15.40;98.70;;;;;;7403832;19;19926;-75
2023/06/14 02:23:52;;;;;;;1.30;1.05;;;15.50;98.80;;;;;;7401671;19;19998;-75
2023/06/14 02:26:25;;;;;;;3.38;1.15;;;15.50;98.80;;;;;;7400957;19;19922;-75
2023/06/14 02:28:54;;;;;;;2.40;1.30;;;15.50;99.10;;;;;;7403365;19;19942;-75
2023/06/14 02:31:24;;;;;;;6.57;2.60;;;15.60;98.90;;;;;;7403029;19;19915;-75
2023/06/14 02:33:53;;;;;;;5.47;1.30;;;15.50;99.00;;;;;;7402229;19;19923;-75
2023/06/14 02:36:22;;;;;;;2.35;1.60;;;15.50;99.10;;;;;;7402862;19;19919;-75
2023/06/14 02:38:57;;;;;;;2.28;1.25;;;15.50;99.10;;;;;;7399552;19;19926;-75
2023/06/14 02:41:29;;;;;;;2.13;1.23;;;15.40;99.20;;;;;;7402496;19;19928;-75
2023/06/14 02:44:00;;;;;;;3.65;1.40;;;15.60;99.40;;;;;;7400742;19;20329;-75
2023/06/14 02:46:30;;;;;;;2.15;1.60;;;15.40;99.30;;;;;;7401821;19;19982;-74
2023/06/14 02:48:59;;;;;;;3.20;1.42;;;15.50;99.30;;;;;;7401105;19;20261;-74
2023/06/14 02:51:41;;;;;;;4.03;1.17;;;15.50;99.40;;;;;;7403235;19;19911;-75
2023/06/14 02:54:10;;;;;;;2.60;1.35;;;15.30;99.50;;;;;;7399845;19;20399;-75
2023/06/14 02:56:45;;;;;;;2.85;1.45;;;15.40;99.60;;;;;;7402681;19;20360;-75
2023/06/14 02:59:15;;;;;;;3.08;1.30;;;15.20;99.80;;;;;;7400679;19;19927;-75
2023/06/14 03:01:45;;;;;;;2.50;1.40;;;15.40;99.90;;;;;;7401157;19;20268;-75
2023/06/14 03:04:29;;;;;;;3.15;1.63;;;15.30;99.90;;;;;;7401845;19;19922;-75
2023/06/14 03:06:58;;;;;;;1.85;1.67;;;15.30;99.90;;;;;;7400783;19;19926;-72
2023/06/14 03:09:28;;;;;;;2.70;1.60;;;15.20;99.90;;;;;;7402863;19;20335;-74
2023/06/14 03:12:01;;;;;;;3.55;1.50;;;15.20;99.90;;;;;;7402326;19;19918;-74
2023/06/14 03:14:30;;;;;;;4.93;2.10;;;15.30;99.90;;;;;;7401991;19;19915;-74
2023/06/14 03:17:00;;;;;;;2.38;1.50;;;15.30;99.90;;;;;;7397552;19;20330;-74
2023/06/14 03:19:29;;;;;;;3.63;1.60;;;15.30;99.90;;;;;;7400516;19;19922;-74
2023/06/14 03:21:59;;;;;;;3.65;1.92;;;15.30;99.90;;;;;;7398050;19;19929;-74
2023/06/14 03:24:31;;;;;;;2.42;1.30;;;15.20;99.90;;;;;;7400570;19;19943;-74
2023/06/14 03:27:23;;;;;;;2.72;1.42;;;15.30;99.90;;;;;;7398497;19;19922;-74
2023/06/14 03:30:13;;;;;;;3.63;1.60;;;15.10;99.90;;;;;;7400220;19;20333;-74
2023/06/14 03:33:02;;;;;;;5.88;1.75;;;15.10;99.90;;;;;;7399338;19;20396;-74
2023/06/14 03:35:52;;;;;;;3.33;1.67;;;15.10;99.90;;;;;;7402360;19;19930;-74
2023/06/14 03:38:41;;;;;;;3.40;1.55;;;14.90;99.90;;;;;;7402418;19;19922;-74
2023/06/14 03:41:29;;;;;;;2.72;1.63;;;14.90;99.90;;;;;;7405238;19;19918;-74
2023/06/14 03:44:21;;;;;;;;;;;14.80;99.90;;;;;;7406370;19;19918;-74
2023/06/14 03:47:10;;;;;;;2.70;1.77;;;14.80;99.90;;;;;;7405710;19;19918;-74
2023/06/14 03:49:42;;;;;;;3.58;1.60;;;15.00;99.90;;;;;;7407160;19;19935;-74
2023/06/14 03:52:31;;;;;;;5.03;1.67;;;14.90;99.90;;;;;;7404770;19;19922;-74
2023/06/14 03:55:20;;;;;;;3.85;1.77;;;14.90;99.90;;;;;;7405030;19;19945;-74
2023/06/14 03:57:49;;;;;;;3.17;1.92;;;14.90;99.90;;;;;;7404452;19;19939;-73
2023/06/14 04:00:21;;;;;;;4.53;1.67;;;15.00;99.90;;;;;;7406214;19;19914;-74
2023/06/14 04:02:50;;;;;;;4.00;1.92;;;15.00;99.90;;;;;;7406796;19;19979;-74
2023/06/14 04:05:20;;;;;;;3.90;1.95;;;15.00;99.90;;;;;;7407594;19;19929;-74
2023/06/14 04:07:50;;;;;;;4.97;1.70;;;15.00;99.90;;;;;;7406706;19;19914;-75
2023/06/14 04:10:20;;;;;;;3.92;1.55;;;15.00;99.90;;;;;;7407703;19;19956;-74
2023/06/14 04:12:51;;;;;;;5.30;1.65;;;14.90;99.90;;;;;;7407286;19;19929;-74
2023/06/14 04:15:23;;;;;;;4.28;1.80;;;14.90;99.90;;;;;;7404646;19;19926;-74
2023/06/14 04:17:57;;;;;;;4.35;1.90;;;14.90;99.90;;;;;;7405361;19;19956;-74
2023/06/14 04:20:26;;;;;;;8.30;2.20;;;15.00;99.90;;;;;;7407271;19;19919;-74
2023/06/14 04:22:57;;;;;;;2.78;1.70;;;15.00;99.90;;;;;;7408481;19;19938;-74
2023/06/14 04:25:27;;;;;;;3.80;1.80;;;15.10;99.90;;;;;;7409345;19;19918;-74
2023/06/14 04:27:58;;;;;;;4.70;1.95;;;15.20;99.90;;;;;;7403687;19;19926;-74
2023/06/14 04:30:31;;;;;;;3.28;1.80;;;15.20;99.90;;;;;;7405367;19;19952;-74
2023/06/14 04:33:01;;;;;;;5.90;1.90;;;15.20;99.90;;;;;;7404493;19;19922;-74
2023/06/14 04:35:32;;;;;;;3.15;1.58;;;15.30;99.90;;;;;;7403965;19;19947;-76
2023/06/14 04:38:01;;;;;;;5.20;1.92;;;15.30;99.90;;;;;;7403771;19;19926;-74
2023/06/14 04:40:31;;;;;;;3.05;1.90;;;15.20;99.90;;;;;;7406578;19;19947;-74
2023/06/14 04:43:04;;;;;;;3.15;1.67;;;15.40;99.90;;;;;;7407425;19;19922;-74
2023/06/14 04:45:37;;;;;;;3.10;1.70;;;15.50;99.90;;;;;;7407466;19;19946;-74
2023/06/14 04:48:08;;;;;;;4.70;2.20;;;15.30;99.90;;;;;;7406091;19;19937;-75
2023/06/14 04:50:40;;;;;;;2.72;1.60;;;15.40;99.90;;;;;;7404417;19;20548;-74
2023/06/14 04:53:10;;;;;;;6.07;2.30;;;15.40;99.90;;;;;;7403293;19;19923;-74
2023/06/14 04:55:44;;;;;;;4.60;2.03;;;15.60;99.90;;;;;;7406974;19;20351;-74
2023/06/14 04:58:14;;;;;;;4.03;1.85;;;15.60;99.90;;;;;;7404994;19;19919;-74
2023/06/14 05:00:47;;;;;;;3.60;1.75;;;15.50;99.90;;;;;;7404627;19;19918;-74
2023/06/14 05:03:18;;;;;;;3.53;1.83;;;15.60;99.90;;;;;;7407318;19;19922;-74
2023/06/14 05:05:47;;;;;;;4.63;2.05;;;15.60;99.90;;;;;;7406253;19;19919;-75
2023/06/14 05:08:17;;;;;;;2.33;1.65;;;15.70;99.90;;;;;;7407398;19;19919;-74
2023/06/14 05:10:47;;;;;;;5.57;1.90;;;15.70;99.90;;;;;;7407061;19;20474;-74
2023/06/14 05:13:17;;;;;;;6.55;2.13;;;15.80;99.90;;;;;;7405316;19;19922;-75
2023/06/14 05:15:49;;;;;;;5.53;1.95;;;15.70;99.90;;;;;;7407989;19;20313;-75
2023/06/14 05:18:19;;;;;;;7.15;1.98;;;15.60;99.90;;;;;;7405206;19;19918;-74
2023/06/14 05:20:49;;;;;;;3.22;1.88;;;15.80;99.90;;;;;;7406550;19;19918;-75
2023/06/14 05:23:19;;;;;;;6.20;2.15;;;15.70;99.90;;;;;;7405177;19;20260;-75
2023/06/14 05:25:49;;;;;;;4.85;2.05;;;15.60;99.90;;;;;;7407125;19;19926;-75
2023/06/14 05:28:20;;;;;;;3.72;2.00;;;15.80;99.90;;;;;;7404423;19;19933;-75
2023/06/14 05:30:53;;;;;;;4.75;2.10;;;16.00;99.90;;;;;;7405872;19;19934;-75
2023/06/14 05:33:23;;;;;;;4.22;2.03;;;15.90;99.90;;;;;;7406484;19;19927;-75
2023/06/14 05:35:52;;;;;;;4.97;2.38;;;16.00;99.90;;;;;;7405466;19;19926;-75
2023/06/14 05:38:22;;;;;;;8.25;1.80;;;15.90;99.90;;;;;;7405024;19;19922;-73
2023/06/14 05:40:53;;;;;;;5.13;2.03;;;16.00;99.90;;;;;;7404073;19;19922;-73
2023/06/14 05:43:23;;;;;;;5.55;1.92;;;16.20;99.90;;;;;;7404893;19;20245;-72
2023/06/14 05:45:55;;;;;;;5.00;1.90;;;16.20;99.90;;;;;;7404726;19;19951;-72
2023/06/14 05:48:25;;;;;;;4.22;1.92;;;16.20;99.90;;;;;;7405968;19;19918;-72
2023/06/14 05:50:54;;;;;;;3.90;1.95;;;16.40;99.90;;;;;;7404505;19;19923;-73
2023/06/14 05:53:25;;;;;;;5.45;1.80;;;16.20;99.90;;;;;;7403017;19;19918;-73
2023/06/14 05:55:54;;;;;;;4.05;2.22;;;16.40;99.90;;;;;;7404463;19;19929;-75
2023/06/14 05:58:23;;;;;;;3.15;1.90;;;16.30;99.90;;;;;;7401661;19;19965;-74
2023/06/14 06:00:57;;;;;;;3.75;2.00;;;16.40;99.90;;;;;;7403234;19;19923;-73
2023/06/14 06:03:29;;;;;;;3.38;1.98;;;16.20;99.90;;;;;;7404478;19;19922;-74
2023/06/14 06:05:59;;;;;;;6.85;1.88;;;16.40;99.90;;;;;;7403564;19;19925;-74
2023/06/14 06:08:29;;;;;;;3.88;1.98;;;16.60;99.90;;;;;;7404438;19;19974;-74
2023/06/14 06:10:59;;;;;;;3.30;1.70;;;16.60;99.90;;;;;;7403512;19;19922;-73
2023/06/14 06:13:28;;;;;;;3.60;1.88;;;16.50;99.90;;;;;;7403442;19;19926;-74
2023/06/14 06:16:03;;;;;;;3.55;1.98;;;16.50;99.90;;;;;;7399108;19;19922;-73
2023/06/14 06:18:33;;;;;;;;;;;16.60;99.90;;;;;;7405084;19;19930;-74
2023/06/14 06:21:03;;;;;;;7.78;1.70;;;16.50;99.90;;;;;;7398287;19;19965;-74
2023/06/14 06:23:32;;;;;;;3.03;1.40;;;16.60;99.90;;;;;;7401466;19;19926;-73
2023/06/14 06:26:01;;;;;;;5.80;2.28;;;16.90;99.90;;;;;;7402685;19;19925;-73
2023/06/14 06:28:30;;;;;;;4.43;1.90;;;16.80;99.90;;;;;;7402736;19;21198;-74
2023/06/14 06:30:59;;;;;;;4.95;1.92;;;16.80;99.90;;;;;;7404819;19;19974;-74
2023/06/14 06:33:31;;;;;;;2.95;1.75;;;16.80;99.90;;;;;;7403671;19;19910;-72
2023/06/14 06:36:00;;;;;;;3.70;1.90;;;16.90;99.90;;;;;;7403744;19;19922;-72
2023/06/14 06:38:29;;;;;;;9.40;1.80;;;17.00;99.90;;;;;;7402173;19;19955;-72
2023/06/14 06:40:59;;;;;;;3.42;1.80;;;17.10;99.90;;;;;;7404728;19;20304;-73
2023/06/14 06:43:28;;;;;;;3.05;1.77;;;17.20;99.90;;;;;;7402663;19;19941;-74
2023/06/14 06:45:57;;;;;;;4.22;1.67;;;17.40;99.90;;;;;;7402696;19;19923;-73
2023/06/14 06:48:26;;;;;;;3.58;1.67;;;17.30;99.90;;;;;;7403401;19;19937;-73
2023/06/14 06:50:58;;;;;;;4.47;2.03;;;17.30;99.90;;;;;;7403507;19;19919;-73
2023/06/14 06:53:28;;;;;;;4.38;2.00;;;17.50;99.90;;;;;;7403311;19;19971;-73
2023/06/14 06:55:57;;;;;;;17.50;2.20;;;17.50;99.90;;;;;;7403928;19;19982;-73
2023/06/14 06:58:26;;;;;;;5.03;1.95;;;17.60;99.90;;;;;;7400999;19;19943;-73
2023/06/14 07:00:54;;;;;;;6.25;1.75;;;17.70;99.90;;;;;;7399962;19;20278;-74
2023/06/14 07:03:23;;;;;;;3.22;1.80;;;17.80;99.90;;;;;;7399504;19;20340;-73
2023/06/14 07:05:52;;;;;;;3.60;1.80;;;17.80;99.90;;;;;;7401079;19;20612;-73
2023/06/14 07:08:24;;;;;;;4.53;1.52;;;17.90;99.90;;;;;;7404165;19;20356;-74
2023/06/14 07:10:53;;;;;;;;;;;18.00;99.90;;;;;;7410462;19;19951;-73
2023/06/14 07:13:22;;;;;;;3.40;1.83;;;17.90;99.90;;;;;;7408607;19;19918;-73
2023/06/14 07:15:53;;;;;;;4.05;1.63;;;18.00;99.90;;;;;;7407468;19;19934;-73
2023/06/14 07:18:22;;;;;;;3.17;1.58;;;18.10;99.90;;;;;;7407717;19;19918;-73
2023/06/14 07:20:51;;;;;;;1.95;1.52;;;18.00;99.90;;;;;;7406927;19;19922;-74
2023/06/14 07:23:21;;;;;;;3.13;1.60;;;18.10;99.90;;;;;;7407605;19;19926;-74
2023/06/14 07:25:52;;;;;;;3.40;1.48;;;18.40;99.90;;;;;;7410583;19;19943;-73
2023/06/14 07:28:21;;;;;;;4.45;1.85;;;18.20;99.90;;;;;;7408110;19;19957;-74
2023/06/14 07:30:51;;;;;;;4.93;1.50;;;18.30;99.90;;;;;;7408097;19;19927;-73
2023/06/14 07:33:20;;;;;;;2.80;1.38;;;18.50;99.90;;;;;;7409261;19;19919;-73
2023/06/14 07:35:49;;;;;;;15.05;2.05;;;18.50;99.90;;;;;;7409941;19;19923;-73
2023/06/14 07:38:18;;;;;;;2.47;1.35;;;18.60;99.90;;;;;;7409017;19;19922;-73
2023/06/14 07:40:47;;;;;;;2.40;1.50;;;18.60;99.90;;;;;;7407361;19;19931;-74
2023/06/14 07:43:18;;;;;;;2.42;1.45;;;18.70;99.90;;;;;;7408493;19;19939;-74
2023/06/14 07:45:47;;;;;;;;;;;18.50;99.80;;;;;;7410458;19;20380;-73
2023/06/14 07:48:16;;;;;;;3.60;1.70;;;18.60;99.90;;;;;;7408679;19;20353;-73
2023/06/14 07:50:45;;;;;;;3.42;1.85;;;18.80;99.80;;;;;;7407172;19;19946;-73
2023/06/14 07:53:15;;;;;;;4.40;1.70;;;18.90;99.70;;;;;;7407693;19;19926;-73
2023/06/14 07:55:47;;;;;;;4.10;1.80;;;18.90;99.40;;;;;;7406998;19;19922;-74
2023/06/14 07:58:18;;;;;;;3.25;1.40;;;19.10;99.40;;;;;;7407396;19;20344;-73
2023/06/14 08:00:47;;;;;;;;;;;19.00;99.30;;;;;;7407315;19;20045;-74
2023/06/14 08:03:16;;;;;;;4.78;1.63;;;19.10;99.30;;;;;;7407862;19;19945;-73
2023/06/14 08:05:45;;;;;;;2.88;1.48;;;19.10;99.20;;;;;;7405931;19;19925;-74
2023/06/14 08:08:14;;;;;;;2.80;1.48;;;19.10;99.10;;;;;;7406361;19;19922;-73
2023/06/14 08:10:43;;;;;;;7.72;2.35;;;19.30;99.10;;;;;;7404121;19;19926;-74
2023/06/14 08:13:13;;;;;;;2.10;1.40;;;19.60;99.10;;;;;;7406466;19;19918;-73
2023/06/14 08:15:44;;;;;;;2.00;1.42;;;19.30;98.90;;;;;;7403748;19;19946;-73
2023/06/14 08:18:13;;;;;;;3.53;1.90;;;19.40;98.90;;;;;;7405885;19;20325;-74
2023/06/14 08:20:43;;;;;;;3.13;1.38;;;19.60;98.80;;;;;;7400464;19;19974;-74
2023/06/14 08:23:13;;;;;;;2.78;1.38;;;19.50;98.50;;;;;;7403713;19;19926;-74
2023/06/14 08:25:42;;;;;;;3.55;1.60;;;19.70;98.40;;;;;;7404962;19;19978;-73
2023/06/14 08:28:11;;;;;;;3.88;1.67;;;18.50;97.90;;;;;;7403282;19;19982;-73
2023/06/14 08:30:40;;;;;;;2.15;1.42;;;19.80;98.20;;;;;;7404978;19;19933;-73
2023/06/14 08:33:12;;;;;;;5.10;1.85;;;19.60;98.20;;;;;;7406173;19;19919;-74
2023/06/14 08:35:41;;;;;;;3.33;1.55;;;19.90;98.20;;;;;;7405692;19;20314;-74
2023/06/14 08:38:10;;;;;;;4.47;1.60;;;19.80;98.10;;;;;;7406489;19;19926;-74
2023/06/14 08:40:40;;;;;;;6.35;1.80;;;21.80;98.40;;;;;;7403758;19;20010;-74
2023/06/14 08:43:10;;;;;;;1.80;1.45;;;20.00;97.90;;;;;;7404822;19;19929;-74
2023/06/14 08:45:39;;;;;;;2.30;1.75;;;20.10;97.80;;;;;;7404734;19;20336;-74
2023/06/14 08:48:16;;;;;;;2.00;1.40;;;20.10;97.70;;;;;;7406344;19;19930;-74
2023/06/14 08:50:46;;;;;;;2.15;1.55;;;20.10;97.70;;;;;;7401971;19;19990;-74
2023/06/14 08:53:20;;;;;;;3.85;1.90;;;20.10;97.60;;;;;;7405653;19;19935;-74
2023/06/14 08:55:50;;;;;;;3.60;1.60;;;20.40;97.60;;;;;;7400882;19;19919;-74
2023/06/14 08:58:19;;;;;;;5.85;1.63;;;20.30;97.50;;;;;;7402563;19;19917;-74
2023/06/14 09:00:49;;;;;;;4.80;2.03;;;20.40;97.40;;;;;;7399438;19;19929;-74
2023/06/14 09:03:22;;;;;;;3.35;1.60;;;20.50;97.50;;;;;;7404739;19;19974;-74
2023/06/14 09:05:53;;;;;;;5.45;1.67;;;20.50;97.00;;;;;;7405533;19;19933;-74
2023/06/14 09:08:22;;;;;;;3.42;1.42;;;20.60;96.90;;;;;;7405476;19;19926;-74
2023/06/14 09:10:51;;;;;;;4.03;1.38;;;20.50;96.70;;;;;;7403161;19;20216;-74
2023/06/14 09:13:20;;;;;;;4.07;1.73;;;20.80;96.60;;;;;;7401800;19;19990;-74
2023/06/14 09:15:49;;;;;;;3.08;1.92;;;20.70;96.40;;;;;;7401974;19;19923;-74
2023/06/14 09:18:22;;;;;;;4.72;1.50;;;20.60;96.30;;;;;;7404125;19;19934;-74
2023/06/14 09:20:51;;;;;;;3.38;1.40;;;20.90;96.50;;;;;;7403988;19;19915;-74
2023/06/14 09:23:24;;;;;;;3.55;1.50;;;20.70;96.30;;;;;;7404827;19;19935;-74
2023/06/14 09:25:53;;;;;;;2.67;1.38;;;21.00;96.20;;;;;;7404206;19;19922;-73
2023/06/14 09:28:22;;;;;;;4.43;1.50;;;21.20;96.20;;;;;;7403170;19;19935;-74
2023/06/14 09:30:51;;;;;;;1.92;1.27;;;21.10;96.20;;;;;;7401445;19;19923;-73
2023/06/14 09:33:23;;;;;;;3.97;1.23;;;21.10;96.10;;;;;;7399653;19;19922;-74
2023/06/14 09:35:55;;;;;;;2.83;1.33;;;21.40;96.10;;;;;;7404532;19;19944;-74
2023/06/14 09:38:24;;;;;;;2.42;1.33;;;21.40;96.20;;;;;;7404596;19;19926;-74
2023/06/14 09:40:53;;;;;;;3.90;1.52;;;21.50;95.80;;;;;;7401564;19;19994;-74
2023/06/14 09:43:23;;;;;;;2.75;1.60;;;21.60;95.50;;;;;;7400839;19;19922;-74
2023/06/14 09:45:54;;;;;;;2.38;1.20;;;21.70;95.50;;;;;;7403964;19;19926;-74
2023/06/14 09:48:25;;;;;;;4.22;1.60;;;21.60;95.40;;;;;;7403982;19;20621;-74
2023/06/14 09:50:55;;;;;;;;;;;21.80;95.30;;;;;;7404118;19;19922;-74
2023/06/14 09:53:25;;;;;;;2.38;1.02;;;22.00;94.90;;;;;;7400237;19;19926;-74
2023/06/14 09:55:57;;;;;;;2.95;1.40;;;21.90;95.20;;;;;;7400363;19;20373;-75
2023/06/14 09:58:29;;;;;;;2.00;1.10;;;22.00;94.80;;;;;;7402555;19;20000;-75
2023/06/14 10:00:58;;;;;;;6.15;1.75;;;22.30;94.70;;;;;;7401087;19;19931;-73
2023/06/14 10:03:32;;;;;;;3.97;1.27;;;22.20;94.40;;;;;;7404724;19;19958;-74
2023/06/14 10:06:05;;;;;;;5.72;1.83;;;22.40;94.20;;;;;;7404398;19;20349;-74
2023/06/14 10:08:36;;;;;;;3.65;1.27;;;21.80;93.90;;;;;;7398223;19;19926;-74
2023/06/14 10:11:06;;;;;;;4.13;1.20;;;22.60;93.70;;;;;;7400647;19;20273;-74
2023/06/14 10:13:36;;;;;;;3.08;1.33;;;22.60;93.80;;;;;;7401311;19;20261;-74
2023/06/14 10:16:13;;;;;;;3.75;1.15;;;22.70;93.70;;;;;;7403787;19;19930;-74
2023/06/14 10:18:54;;;;;;;6.85;1.60;;;22.80;93.50;;;;;;7401923;19;19930;-74
2023/06/14 10:21:31;;;;;;;2.45;1.20;;;22.80;93.40;;;;;;7400342;19;20376;-74
2023/06/14 10:24:06;;;;;;;2.30;1.00;;;23.10;93.80;;;;;;7401684;19;19987;-74
2023/06/14 10:26:35;;;;;;;4.60;1.30;;;23.00;93.40;;;;;;7401548;19;19919;-74
2023/06/14 10:29:10;;;;;;;2.38;1.08;;;23.10;93.10;;;;;;7402202;19;19966;-74
2023/06/14 10:31:45;;;;;;;3.38;1.02;;;23.30;92.80;;;;;;7401553;19;19922;-74
2023/06/14 10:34:25;;;;;;;2.70;1.10;;;23.30;92.60;;;;;;7403134;19;19930;-74
2023/06/14 10:37:05;;;;;;;2.80;1.20;;;23.00;92.20;;;;;;7401830;19;19982;-75
2023/06/14 10:39:35;;;;;;;2.78;1.13;;;23.40;92.20;;;;;;7401479;19;19989;-74
2023/06/14 10:42:07;;;;;;;2.60;1.30;;;23.40;92.30;;;;;;7401076;19;19922;-74
2023/06/14 10:44:46;;;;;;;1.63;1.00;;;23.60;92.10;;;;;;7400390;19;20650;-73
2023/06/14 10:47:30;;;;;;;3.67;1.10;;;23.50;91.30;;;;;;7401858;19;19930;-74
2023/06/14 10:50:08;;;;;;;1.45;1.20;;;23.60;91.30;;;;;;7398738;19;19918;-74
2023/06/14 10:52:41;;;;;;;1.48;1.08;;;23.80;91.70;;;;;;7402697;19;19931;-74
2023/06/14 10:55:14;;;;;;;2.08;1.33;;;23.80;91.80;;;;;;7399692;19;19914;-74
2023/06/14 10:57:46;;;;;;;;;;;23.80;91.60;;;;;;7403873;19;19915;-74
2023/06/14 11:00:21;;;;;;;4.60;1.10;;;23.80;91.00;;;;;;7401601;19;19926;-74
2023/06/14 11:03:26;;;;;;;1.52;1.08;;;23.80;91.60;;;;;;7400711;19;19929;-74
2023/06/14 11:05:59;;;;;;;2.05;1.20;;;23.80;90.70;;;;;;7402111;19;19918;-74
2023/06/14 11:09:05;;;;;;;3.35;1.50;;;23.90;91.40;;;;;;7400064;19;19926;-74
2023/06/14 11:11:36;;;;;;;4.07;1.00;;;24.20;91.30;;;;;;7399913;19;19915;-74
2023/06/14 11:14:05;;;;;;;;;;;24.20;91.30;;;;;;7403754;19;19918;-74
2023/06/14 11:16:39;;;;;;;;;;;24.40;90.80;;;;;;7401079;19;19986;-74
2023/06/14 11:19:08;;;;;;;3.55;1.20;;;24.20;90.40;;;;;;7393051;19;19932;-74
2023/06/14 11:21:43;;;;;;;1.30;0.90;;;24.50;91.10;;;;;;7398277;19;19927;-74
2023/06/14 11:24:14;;;;;;;1.15;1.00;;;24.60;91.00;;;;;;7394878;19;19915;-74
2023/06/14 11:26:44;;;;;;;4.40;1.10;;;24.80;90.90;;;;;;7398464;19;19936;-74
2023/06/14 11:29:16;;;;;;;1.95;1.17;;;24.90;90.90;;;;;;7399414;19;20244;-74
2023/06/14 11:31:47;;;;;;;1.73;1.02;;;25.80;90.80;;;;;;7390717;19;19947;-74
2023/06/14 11:34:16;;;;;;;;;;;25.30;90.40;;;;;;7396013;19;19926;-74
2023/06/14 11:36:48;;;;;;;2.55;1.10;;;25.30;88.80;;;;;;7395502;19;20316;-73
2023/06/14 11:39:18;;;;;;;3.13;1.30;;;25.30;90.10;;;;;;7393070;19;19918;-74
2023/06/14 11:41:48;;;;;;;4.50;1.38;;;25.40;90.10;;;;;;7393649;19;19922;-73
2023/06/14 11:44:23;;;;;;;3.60;1.20;;;25.50;89.90;;;;;;7392236;19;20325;-73
2023/06/14 11:46:52;;;;;;;1.40;1.10;;;25.40;90.00;;;;;;7399305;19;19922;-73
2023/06/14 11:49:21;;;;;;;4.03;0.95;;;25.30;89.20;;;;;;7397883;19;19990;-74
2023/06/14 11:51:52;;;;;;;1.23;1.10;;;25.50;88.90;;;;;;7398172;19;19949;-74
2023/06/14 11:54:21;;;;;;;2.13;1.00;;;25.50;88.70;;;;;;7397392;19;20296;-74
2023/06/14 11:56:51;;;;;;;5.07;1.33;;;25.60;88.80;;;;;;7401548;19;19926;-74
2023/06/14 11:59:23;;;;;;;2.00;1.38;;;25.60;88.40;;;;;;7400035;19;19922;-73
2023/06/14 12:01:52;;;;;;;1.98;1.10;;;25.60;88.70;;;;;;7400056;19;19918;-74
2023/06/14 12:04:27;;;;;;;6.53;1.30;;;25.20;88.80;;;;;;7403533;19;19928;-74
2023/06/14 12:06:59;;;;;;;1.45;1.20;;;25.50;88.60;;;;;;7397393;19;19915;-74
2023/06/14 12:09:28;;;;;;;3.67;1.10;;;25.60;88.50;;;;;;7399286;19;19926;-74
2023/06/14 12:12:05;;;;;;;3.33;1.20;;;25.90;88.10;;;;;;7402665;19;19978;-73
2023/06/14 12:14:35;;;;;;;1.48;1.35;;;25.60;87.40;;;;;;7402357;19;19933;-73
2023/06/14 12:17:09;;;;;;;2.35;1.20;;;26.10;88.20;;;;;;7402722;19;19929;-74
2023/06/14 12:19:45;;;;;;;1.98;1.30;;;26.30;87.50;;;;;;7402257;19;19982;-74
2023/06/14 12:22:17;;;;;;;3.15;1.30;;;26.50;87.20;;;;;;7399953;19;20363;-74
2023/06/14 12:24:49;;;;;;;1.67;1.25;;;26.80;87.10;;;;;;7397713;19;20657;-74
2023/06/14 12:27:20;;;;;;;3.05;1.55;;;26.60;86.70;;;;;;7394308;19;19919;-73
2023/06/14 12:29:49;;;;;;;2.08;1.13;;;26.40;86.30;;;;;;7400817;19;19915;-74
2023/06/14 12:32:18;;;;;;;4.47;1.30;;;26.70;86.20;;;;;;7400410;19;19934;-73
2023/06/14 12:34:47;;;;;;;3.15;1.02;;;26.50;86.10;;;;;;7400506;19;19922;-74
2023/06/14 12:37:19;;;;;;;1.65;1.40;;;26.60;85.90;;;;;;7402817;19;19918;-73
2023/06/14 12:39:50;;;;;;;1.60;1.00;;;26.70;85.50;;;;;;7402268;19;20349;-74
2023/06/14 12:42:19;;;;;;;4.13;1.20;;;27.20;85.50;;;;;;7399108;19;19918;-74
2023/06/14 12:44:51;;;;;;;1.55;1.15;;;27.10;85.20;;;;;;7405538;19;19986;-73
2023/06/14 12:47:20;;;;;;;1.40;1.10;;;27.20;85.10;;;;;;7402187;19;19947;-74
2023/06/14 12:49:50;;;;;;;2.25;1.38;;;27.20;85.00;;;;;;7402731;19;19923;-74
2023/06/14 12:52:22;;;;;;;4.22;1.40;;;27.10;84.80;;;;;;7401948;19;19937;-74
2023/06/14 12:54:51;;;;;;;4.57;1.50;;;26.90;84.80;;;;;;7402619;19;20337;-74
2023/06/14 12:57:20;;;;;;;2.28;1.67;;;26.40;84.80;;;;;;7404004;19;19919;-74
2023/06/14 12:59:50;;;;;;;5.60;1.25;;;26.20;85.10;;;;;;7404041;19;20000;-74
2023/06/14 13:02:22;;;;;;;2.42;1.42;;;25.90;85.40;;;;;;7400235;19;20364;-74
2023/06/14 13:04:52;;;;;;;;;;;26.10;85.50;;;;;;7403158;19;19987;-74
2023/06/14 13:07:25;;;;;;;2.28;1.30;;;26.30;86.30;;;;;;7403091;19;19943;-74
2023/06/14 13:09:54;;;;;;;1.35;1.20;;;25.90;85.70;;;;;;7401826;19;20461;-74
2023/06/14 13:12:26;;;;;;;2.60;1.30;;;26.00;86.20;;;;;;7405121;19;19926;-74
2023/06/14 13:14:56;;;;;;;1.95;1.35;;;25.30;86.00;;;;;;7406091;19;19918;-74